• Join FlightAware (Why Join?)
  • Login
  • US Flag 
03:09AM EDT


 

Airport Tracker/Info


-or-


 

Live Flight TrackerFlight Track Log ✈ SWA499 ✈ 26-Apr-2013 ✈ KDEN - KMCI

Flight Track Log - Related Links

Times and Time Zones

All times are in EDT time to prevent confusion due to time zone crossing. See the SWA499 flight status page for this flight to view local times or setup timezone preferences in your user account.

Time Position Orientation Groundspeed Altitude Reporting Facility
EDT Latitude Longitude Course Direction KTS MPH feet Rate Location/Type
12:39PM 39.9333 -104.6333 72° East 211 243 7,900  Level Denver TRACON
12:40PM 39.9500 -104.5500 75° East 259 298 9,800 1,080 Climbing Denver TRACON
12:41PM 39.9500 -104.4500 90° East 282 325 10,000 240 Climbing Denver TRACON
12:42PM 39.9500 -104.3500 90° East 287 330 10,300 960 Climbing Denver TRACON
12:43PM 39.9278 -104.3197 134° Southeast 289 333 11,400 2,760 Climbing Denver Center
12:44PM 39.8836 -104.2228 121° Southeast 312 359 14,300 2,880 Climbing Denver Center
12:45PM 39.8686 -103.7921 72° East  Level FlightAware Approximate
12:45PM 39.8789 -104.0861 93° East 355 409 17,400  Level Denver Center
12:46PM 39.8797 -103.9528 89° East 366 421 20,200 2,520 Climbing Denver Center
12:47PM 39.8894 -103.8111 85° East 391 450 22,700 2,460 Climbing Denver Center
12:48PM 39.9017 -103.6697 84° East 384 442 25,400 2,340 Climbing Denver Center
12:49PM 39.9122 -103.5192 85° East 408 470 27,600 2,040 Climbing Denver Center
12:50PM 39.9228 -103.3658 85° East 421 484 29,700 1,560 Climbing Denver Center
12:51PM 39.9356 -103.1806 85° East 437 503 31,200 1,320 Climbing Denver Center
12:52PM 39.9486 -102.9867 85° East 454 522 32,800 1,440 Climbing Denver Center
12:53PM 39.9603 -102.8158 85° East 468 539 34,200 1,440 Climbing Denver Center
12:54PM 39.9697 -102.6478 86° East 472 543 35,800 1,380 Climbing Denver Center
12:55PM 39.9828 -102.4589 85° East 470 541 37,100 960 Climbing Denver Center
12:56PM 39.9925 -102.2931 86° East 478 550 37,800 780 Climbing Denver Center
12:57PM 40.0044 -102.0958 85° East 488 562 38,800 540 Climbing Denver Center
12:58PM 40.0136 -101.9256 86° East 491 565 39,000 60 Climbing Denver Center
01:00PM 40.0258 -101.7275 85° East 491 565 39,000  Level Denver Center
01:01PM 40.0347 -101.5581 86° East 490 564 39,000  Level Denver Center
01:02PM 40.0453 -101.3633 86° East 484 557 39,000  Level Denver Center
01:03PM 40.0533 -101.1950 86° East 488 562 39,000  Level Denver Center
01:04PM 40.0633 -100.9992 86° East 486 559 39,000  Level Denver Center
01:05PM 40.0747 -100.7806 86° East 478 550 39,000  Level Denver Center
01:06PM 40.0814 -100.6161 87° East 477 549 39,000  Level Denver Center
01:07PM 40.0906 -100.4239 86° East 477 549 39,000  Level Denver Center
01:08PM 40.0975 -100.2572 87° East 482 555 39,000  Level Denver Center
01:09PM 40.1058 -100.0644 87° East 480 552 39,000  Level Denver Center
01:10PM 40.1125 -99.8842 87° East 482 555 39,000  Level Denver Center
01:11PM 40.1181 -99.7100 88° East 483 556 39,000  Level Denver Center
01:12PM 40.0989 -99.5361 98° East 484 557 39,000  Level Denver Center
01:13PM 40.0856 -99.3636 96° East 481 554 39,000  Level Denver Center
01:14PM 40.0806 -99.1864 92° East 488 562 39,000  Level Denver Center
01:15PM 40.0917 -98.9711 86° East 496 571 39,000  Level Denver Center
01:16PM 40.0983 -98.8281 86° East 495 570 39,000  Level Minneapolis Center
01:17PM 40.1075 -98.6497 86° East 496 571 39,000  Level Minneapolis Center
01:18PM 40.1147 -98.4728 87° East 493 567 39,000  Level Minneapolis Center
01:19PM 40.1236 -98.2953 86° East 492 566 39,000  Level Minneapolis Center
01:20PM 40.1331 -98.0806 87° East 493 567 39,000  Level Minneapolis Center
01:21PM 40.1400 -97.9028 87° East 494 568 39,000  Level Minneapolis Center
01:22PM 40.1483 -97.7247 86° East 492 566 39,000 -120 Level Minneapolis Center
01:23PM 40.1550 -97.5469 87° East 492 566 38,800 -600 Descending Minneapolis Center
01:24PM 40.1628 -97.3686 87° East 493 567 37,800 -960 Descending Minneapolis Center
01:25PM 40.1692 -97.1775 87° East 486 559 36,800 -1,260 Descending Minneapolis Center
01:26PM 40.1758 -96.9992 87° East 491 565 35,200 -1,620 Descending Minneapolis Center
01:27PM 40.1814 -96.8194 88° East 494 568 33,500 -1,380 Descending Minneapolis Center
01:29PM 40.1881 -96.6003 88° East 501 577 32,400 -1,500 Descending Minneapolis Center
01:30PM 40.1947 -96.4164 87° East 506 582 30,500 -2,280 Descending Minneapolis Center
01:31PM 40.1964 -96.2342 89° East 506 582 27,700 -2,760 Descending Minneapolis Center
01:32PM 40.1397 -96.0725 115° Southeast 493 567 24,900 -2,760 Descending Minneapolis Center
01:33PM 40.0758 -95.9269 120° Southeast 471 542 22,100 -2,640 Descending Minneapolis Center
01:34PM 40.0147 -95.7828 119° Southeast 461 531 19,500 -2,880 Descending Minneapolis Center
01:35PM 39.9406 -95.6197 121° Southeast 444 511 16,200 -2,940 Descending Minneapolis Center
01:36PM 39.8811 -95.4867 120° Southeast 432 497 13,500 -1,920 Descending Minneapolis Center
01:37PM 39.8331 -95.4036 127° Southeast 377 434 12,800 -1,020 Descending Kansas City Center
01:38PM 39.7631 -95.3314 142° Southeast 337 388 11,700 -1,140 Descending Kansas City Center
01:39PM 39.6989 -95.2656 142° Southeast 307 353 10,600 -1,080 Descending Kansas City Center
01:40PM 39.6556 -95.1642 119° Southeast 292 336 9,500 -1,080 Descending Kansas City Center
01:41PM 39.6233 -95.0786 116° Southeast 276 318 8,400 -1,140 Descending Kansas City Center
01:42PM 39.5864 -94.9789 116° Southeast 274 315 7,200 -1,020 Descending Kansas City Center
01:43PM 39.5558 -94.8961 116° Southeast 266 306 6,300 -1,020 Descending Kansas City Center
01:44PM 39.5203 -94.8019 116° Southeast 260 299 5,200 -1,020 Descending Kansas City Center
01:45PM 39.4914 -94.7239 116° Southeast 249 287 4,200 -900 Descending Kansas City Center
01:46PM 39.4425 -94.6856 149° Southeast 206 237 3,400 -780 Descending Kansas City Center
01:47PM 39.3983 -94.6981 192° South 169 194 2,600 -780 Descending Kansas City Center
01:48PM 39.3642 -94.7083 193° South 138 159 1,900 -780 Descending Kansas City Center
01:49PM 39.3250 -94.7200 193° South 129 148 1,100 -780 Descending Kansas City Center